Flight Track Log - Related Links

Times and Time Zones

All times are in EDT time to prevent confusion due to time zone crossing. See the UPS1121 flight status page for this flight to view local times or setup timezone preferences in your user account.


Time Position Orientation Groundspeed Altitude Reporting Facility
EDT Latitude Longitude Course Direction KTS MPH feet Rate Location/Type
Wed 09:55:45 PM 41.9292 -72.7025 224° Southwest 150 173 1,200  Level Boston Center
Wed 09:56:28 PM 41.9081 -72.7303 224° Southwest 151 174 2,800 2,420 Climbing Boston Center
Wed 09:57:44 PM 41.8333 -72.6853 156° South 241 277 6,000 2,956 Climbing Boston Center
Wed 09:58:44 PM 41.7583 -72.6350 153° Southeast 276 318 9,500 2,850 Climbing Boston Center
Wed 09:59:44 PM 41.6731 -72.5736 152° Southeast 331 381 11,700 1,641 Climbing Boston Center
Wed 10:05:08 PM 41.1410 -72.6760 152° Southeast 391 450 20,000 1,332 Climbing FlightAware ADS-B
Wed 10:05:58 PM 41.0530 -72.7270 204° Southwest 393 452 20,000  Level FlightAware ADS-B
Wed 10:06:43 PM 40.9800 -72.7700 204° Southwest 394 453 20,000  Level FlightAware ADS-B
Wed 10:07:23 PM 40.9120 -72.8120 205° Southwest 390 449 20,000  Level FlightAware ADS-B
Wed 10:08:08 PM 40.8410 -72.8640 209° Southwest 390 449 20,000  Level FlightAware ADS-B
Wed 10:08:23 PM 40.8134 -72.8844 209° Southwest 390 449 20,000  Level FlightAware ADS-B
Wed 10:08:57 PM 40.7596 -72.9236 209° Southwest 390 449 20,000  Level FlightAware ADS-B
Wed 10:09:30 PM 40.7063 -72.9630 209° Southwest 391 450 20,000  Level FlightAware ADS-B
Wed 10:10:01 PM 40.6580 -72.9985 209° Southwest 391 450 20,000  Level FlightAware ADS-B
Wed 10:10:32 PM 40.6101 -73.0334 209° Southwest 392 451 20,000  Level FlightAware ADS-B
Wed 10:11:03 PM 40.5619 -73.0683 209° Southwest 392 451 20,000  Level FlightAware ADS-B
Wed 10:11:34 PM 40.5125 -73.1040 209° Southwest 390 449 20,000  Level FlightAware ADS-B
Wed 10:12:05 PM 40.4637 -73.1394 209° Southwest 391 450 20,000  Level FlightAware ADS-B
Wed 10:12:39 PM 40.4095 -73.1785 209° Southwest 391 450 20,000  Level FlightAware ADS-B
Wed 10:13:09 PM 40.3609 -73.2136 209° Southwest 392 451 20,000  Level FlightAware ADS-B
Wed 10:13:40 PM 40.3124 -73.2485 209° Southwest 391 450 20,000  Level FlightAware ADS-B
Wed 10:14:10 PM 40.2642 -73.2831 209° Southwest 391 450 20,000  Level FlightAware ADS-B
Wed 10:14:43 PM 40.2125 -73.3201 209° Southwest 391 450 20,000  Level FlightAware ADS-B
Wed 10:15:14 PM 40.1640 -73.3549 209° Southwest 390 449 20,000  Level FlightAware ADS-B
Wed 10:15:31 PM 40.1367 -73.3751 209° Southwest 389 448 20,000 -409 Level FlightAware ADS-B
Wed 10:15:58 PM 40.0971 -73.4122 216° Southwest 383 441 19,700 -878 Descending FlightAware ADS-B
Wed 10:16:12 PM 40.0791 -73.4336 222° Southwest 381 438 19,400 -1,200 Descending FlightAware ADS-B
Wed 10:16:43 PM 40.0404 -73.4832 224° Southwest 381 438 18,800 -984 Descending FlightAware ADS-B
Wed 10:17:13 PM 40.0026 -73.5315 224° Southwest 377 434 18,400 -952 Descending FlightAware ADS-B
Wed 10:17:46 PM 39.9620 -73.5836 225° Southwest 374 430 17,800 -952 Descending FlightAware ADS-B
Wed 10:18:16 PM 39.9248 -73.6309 224° Southwest 371 427 17,400 -923 Descending FlightAware ADS-B
Wed 10:18:51 PM 39.8825 -73.6848 224° Southwest 371 427 16,800 -1,000 Descending FlightAware ADS-B
Wed 10:19:22 PM 39.8444 -73.7331 224° Southwest 367 422 16,300 -1,043 Descending FlightAware ADS-B
Wed 10:20:00 PM 39.7985 -73.7910 224° Southwest 363 418 15,600 -935 Descending FlightAware ADS-B
Wed 10:20:39 PM 39.7519 -73.8501 224° Southwest 359 413 15,100 -943 Descending FlightAware ADS-B
Wed 10:21:10 PM 39.7155 -73.8964 224° Southwest 357 411 14,500 -871 Descending FlightAware ADS-B
Wed 10:21:41 PM 39.6794 -73.9421 224° Southwest 352 405 14,200 -295 Descending FlightAware ADS-B
Wed 10:22:11 PM 39.6438 -73.9869 224° Southwest 357 411 14,200  Level FlightAware ADS-B
Wed 10:22:41 PM 39.6080 -74.0320 224° Southwest 356 410 14,200  Level FlightAware ADS-B
Wed 10:22:49 PM 39.5995 -74.0437 227° Southwest 354 407 14,200  Level FlightAware ADS-B
Wed 10:22:58 PM 39.5905 -74.0586 232° Southwest 349 402 14,200  Level FlightAware ADS-B
Wed 10:23:12 PM 39.5791 -74.0844 240° Southwest 343 395 14,200  Level FlightAware ADS-B
Wed 10:23:19 PM 39.5750 -74.0978 248° West 343 395 14,200  Level FlightAware ADS-B
Wed 10:23:26 PM 39.5717 -74.1123 254° West 343 395 14,200  Level FlightAware ADS-B
Wed 10:23:40 PM 39.5687 -74.1395 262° West 344 396 14,200  Level FlightAware ADS-B
Wed 10:24:10 PM 39.5662 -74.2020 267° West 347 399 14,200  Level FlightAware ADS-B
Wed 10:24:40 PM 39.5640 -74.2648 267° West 348 400 14,200  Level FlightAware ADS-B
Wed 10:25:11 PM 39.5618 -74.3290 267° West 348 400 14,200 -245 Level FlightAware ADS-B
Wed 10:26:18 PM 39.5570 -74.4510 267° West 312 359 13,800 -711 Descending FlightAware ADS-B
Wed 10:26:27 PM 39.5565 -74.4786 269° West 325 374 13,300 -2,341 Descending FlightAware ADS-B
Wed 10:26:59 PM 39.5544 -74.5376 267° West 307 353 12,200 -2,226 Descending FlightAware ADS-B
Wed 10:27:29 PM 39.5524 -74.5928 267° West 304 350 11,000 -1,800 Descending FlightAware ADS-B
Wed 10:27:59 PM 39.5504 -74.6467 267° West 286 329 10,400 -871 Descending FlightAware ADS-B
Wed 10:28:31 PM 39.5486 -74.6966 267° West 256 295 10,100 -490 Descending FlightAware ADS-B
Wed 10:28:48 PM 39.5478 -74.7222 268° West 238 274 10,000 -300 Descending FlightAware ADS-B
Wed 10:28:51 PM 39.5478 -74.7268 270° West 236 272 10,000 -947 Level FlightAware ADS-B
Wed 10:29:07 PM 39.5514 -74.7495 282° West 234 269 9,700 -1,200 Descending FlightAware ADS-B
Wed 10:29:11 PM 39.5528 -74.7550 288° West 228 262 9,600 -833 Descending FlightAware ADS-B
Wed 10:29:43 PM 39.5673 -74.7952 295° West 229 264 9,200 -585 Descending FlightAware ADS-B
Wed 10:29:52 PM 39.5736 -74.8040 313° West 228 262 9,200  Level FlightAware ADS-B
Wed 10:29:56 PM 39.5769 -74.8076 320° Northwest 229 264 9,200  Level FlightAware ADS-B
Wed 10:30:07 PM 39.5860 -74.8147 329° Northwest 232 267 9,200  Level FlightAware ADS-B
Wed 10:30:19 PM 39.5970 -74.8218 334° Northwest 233 268 9,200  Level FlightAware ADS-B
Wed 10:30:31 PM 39.6097 -74.8293 336° Northwest 237 273 9,200  Level FlightAware ADS-B
Wed 10:30:45 PM 39.6232 -74.8362 339° North 237 273 9,200  Level FlightAware ADS-B
Wed 10:31:00 PM 39.6388 -74.8439 339° North 235 270 9,200 -600 Level FlightAware ADS-B
Wed 10:31:15 PM 39.6543 -74.8516 339° North 232 267 8,900 -1,800 Descending FlightAware ADS-B
Wed 10:31:30 PM 39.6697 -74.8592 339° North 235 270 8,300 -2,323 Descending FlightAware ADS-B
Wed 10:31:46 PM 39.6852 -74.8670 339° North 237 273 7,700 -1,929 Descending FlightAware ADS-B
Wed 10:31:58 PM 39.6977 -74.8733 339° North 238 274 7,400 -1,778 Descending FlightAware ADS-B
Wed 10:32:13 PM 39.7132 -74.8810 339° North 240 276 6,900 -1,800 Descending FlightAware ADS-B
Wed 10:32:28 PM 39.7291 -74.8887 340° North 240 276 6,500 -1,742 Descending FlightAware ADS-B
Wed 10:32:44 PM 39.7451 -74.8964 340° North 240 276 6,000 -1,935 Descending FlightAware ADS-B
Wed 10:32:59 PM 39.7616 -74.9043 340° North 243 280 5,500 -1,941 Descending FlightAware ADS-B
Wed 10:33:18 PM 39.7810 -74.9135 340° North 244 281 4,900 -1,909 Descending FlightAware ADS-B
Wed 10:33:21 PM 39.7848 -74.9150 343° North 246 283 4,800 -2,250 Descending FlightAware ADS-B
Wed 10:33:26 PM 39.7900 -74.9163 349° North 248 285 4,600 -2,250 Descending FlightAware ADS-B
Wed 10:33:29 PM 39.7932 -74.9167 355° North 250 288 4,500 -1,714 Descending FlightAware ADS-B
Wed 10:33:33 PM 39.7983 -74.9169 358° North 253 291 4,400 -1,333 Descending FlightAware ADS-B
Wed 10:33:38 PM 39.8039 -74.9166 North 254 292 4,300 -632 Descending FlightAware ADS-B
Wed 10:33:52 PM 39.8204 -74.9146 North 252 290 4,200 -207 Descending FlightAware ADS-B
Wed 10:34:07 PM 39.8379 -74.9122 North 242 278 4,200 -387 Level FlightAware ADS-B
Wed 10:34:23 PM 39.8555 -74.9097 North 238 274 4,000 -1,161 Descending FlightAware ADS-B
Wed 10:34:38 PM 39.8719 -74.9074 North 240 276 3,600 -1,636 Descending FlightAware ADS-B
Wed 10:34:45 PM 39.8788 -74.9066 North 239 275 3,400 -1,800 Descending FlightAware ADS-B
Wed 10:34:48 PM 39.8827 -74.9065 North 237 273 3,300 -857 Descending FlightAware ADS-B
Wed 10:34:52 PM 39.8867 -74.9070 355° North 235 270 3,300 -857 Level FlightAware ADS-B
Wed 10:34:55 PM 39.8904 -74.9080 348° North 235 270 3,200 -600 Descending FlightAware ADS-B
Wed 10:35:02 PM 39.8975 -74.9106 344° North 232 267 3,200  Level FlightAware ADS-B
Wed 10:35:18 PM 39.9123 -74.9174 341° North 221 254 3,200  Level FlightAware ADS-B
Wed 10:35:24 PM 39.9180 -74.9204 338° Northwest 205 236 3,200  Level FlightAware ADS-B
Wed 10:35:27 PM 39.9207 -74.9221 334° Northwest 197 227 3,200  Level FlightAware ADS-B
Wed 10:35:31 PM 39.9235 -74.9247 325° Northwest 187 215 3,200  Level FlightAware ADS-B
Wed 10:35:35 PM 39.9256 -74.9275 314° West 180 207 3,200  Level FlightAware ADS-B
Wed 10:35:40 PM 39.9281 -74.9318 307° West 169 194 3,200  Level FlightAware ADS-B
Wed 10:35:44 PM 39.9292 -74.9354 292° West 161 185 3,200  Level FlightAware ADS-B
Wed 10:35:48 PM 39.9295 -74.9395 275° West 154 177 3,200  Level FlightAware ADS-B
Wed 10:35:54 PM 39.9291 -74.9444 264° West 152 175 3,200  Level FlightAware ADS-B
Wed 10:36:03 PM 39.9278 -74.9527 258° West 155 178 3,200  Level FlightAware ADS-B
Wed 10:36:11 PM 39.9262 -74.9595 253° West 156 180 3,200  Level FlightAware ADS-B
Wed 10:36:18 PM 39.9245 -74.9663 252° West 155 178 3,200  Level FlightAware ADS-B
Wed 10:36:32 PM 39.9219 -74.9782 254° West 152 175 3,200  Level FlightAware ADS-B
Wed 10:36:36 PM 39.9209 -74.9820 251° West 153 176 3,200  Level FlightAware ADS-B
Wed 10:36:45 PM 39.9185 -74.9896 248° West 156 180 3,200  Level FlightAware ADS-B
Wed 10:36:50 PM 39.9172 -74.9942 250° West 156 180 3,200  Level FlightAware ADS-B
Wed 10:37:01 PM 39.9148 -75.0043 253° West 154 177 3,200  Level FlightAware ADS-B
Wed 10:37:17 PM 39.9119 -75.0178 254° West 152 175 3,200  Level FlightAware ADS-B
Wed 10:37:48 PM 39.9069 -75.0428 255° West 148 170 3,200 -226 Level FlightAware ADS-B
Wed 10:38:10 PM 39.9035 -75.0603 256° West 133 153 3,000 -500 Descending FlightAware ADS-B
Wed 10:38:24 PM 39.9013 -75.0710 255° West 133 153 2,900 -720 Descending FlightAware ADS-B
Wed 10:38:35 PM 39.8996 -75.0796 256° West 131 151 2,700 -800 Descending FlightAware ADS-B
Wed 10:38:54 PM 39.8969 -75.0933 256° West 128 147 2,500 -649 Descending FlightAware ADS-B
Wed 10:39:12 PM 39.8943 -75.1063 255° West 122 140 2,300 -500 Descending FlightAware ADS-B
Wed 10:39:18 PM 39.8934 -75.1107 255° West 116 133 2,300 -545 Level FlightAware ADS-B
Wed 10:39:34 PM 39.8914 -75.1209 256° West 110 127 2,100 -581 Descending FlightAware ADS-B
Wed 10:39:49 PM 39.8895 -75.1308 256° West 109 125 2,000 -692 Descending FlightAware ADS-B
Wed 10:40:00 PM 39.8881 -75.1375 255° West 111 128 1,800 -600 Descending FlightAware ADS-B
Wed 10:40:09 PM 39.8869 -75.1436 256° West 112 129 1,800 -316 Level FlightAware ADS-B
Wed 10:40:19 PM 39.8857 -75.1498 256° West 117 135 1,700 -750 Descending FlightAware ADS-B
Wed 10:40:25 PM 39.8849 -75.1541 256° West 119 137 1,600 -923 Descending FlightAware ADS-B
Wed 10:40:32 PM 39.8839 -75.1589 255° West 120 138 1,500 -818 Descending FlightAware ADS-B
Wed 10:40:47 PM 39.8818 -75.1694 255° West 114 131 1,300 -581 Descending FlightAware ADS-B
Wed 10:41:03 PM 39.8798 -75.1795 256° West 109 125 1,200 -462 Descending FlightAware ADS-B
Wed 10:41:13 PM 39.8786 -75.1857 256° West 110 127 1,100 -720 Descending FlightAware ADS-B
Wed 10:41:28 PM 39.8767 -75.1954 256° West 111 128 900 -600 Descending FlightAware ADS-B
Wed 10:41:43 PM 39.8747 -75.2057 256° West 116 133 800 -600 Descending FlightAware ADS-B
Wed 10:41:58 PM 39.8727 -75.2159 256° West 117 135 600 -545 Descending FlightAware ADS-B
Wed 10:42:38 PM 39.8680 -75.2380 255° West 116 133 300 -450 Descending FlightAware ADS-B

Login

Don't have an account? Register now (free) for customized features, flight alerts, and more!